Time;durP1;ratioP1;P1;durP2;ratioP2;P2;SDS_P1;SDS_P2;PMS_P1;PMS_P2;Temp;Humidity;BMP_temperature;BMP_pressure;BME280_temperature;BME280_humidity;BME280_pressure;Samples;Min_cycle;Max_cycle;Signal;HPM_P1;HPM_P2
2022/04/01 00:00:19;;;;;;;5.63;5.23;;;14.70;94.10;;;15.24;45.27;99578.31;4813650;28;117633;-58
2022/04/01 00:02:45;;;;;;;5.90;5.43;;;14.70;94.90;;;15.25;45.27;99580.00;4816916;28;99561;-57
2022/04/01 00:05:11;;;;;;;6.00;5.50;;;14.70;94.40;;;15.32;45.44;99586.56;4825664;28;99260;-57
2022/04/01 00:07:41;;;;;;;5.77;5.27;;;14.80;94.60;;;15.41;45.06;99580.59;4829595;28;98585;-57
2022/04/01 00:10:10;;;;;;;5.67;5.27;;;15.00;93.90;;;15.48;44.64;99576.56;4814618;28;99227;-56
2022/04/01 00:13:04;;;;;;;5.33;4.93;;;15.20;94.00;;;15.64;44.61;99569.19;4821177;28;97535;-57
2022/04/01 00:15:31;;;;;;;5.57;5.07;;;15.40;93.60;;;15.81;43.94;99572.41;4826837;28;101934;-57
2022/04/01 00:17:57;;;;;;;4.73;4.37;;;15.60;93.10;;;16.03;43.54;99572.47;4821265;28;102423;-57
2022/04/01 00:20:23;;;;;;;4.80;4.50;;;16.00;92.60;;;16.17;43.40;99584.75;4815796;28;97918;-57
2022/04/01 00:22:51;;;;;;;5.17;4.77;;;16.20;92.20;;;16.29;43.02;99582.00;4815844;28;98600;-57
2022/04/01 00:25:17;;;;;;;5.40;5.00;;;16.30;91.70;;;16.39;42.79;99581.31;4813099;28;98445;-57
2022/04/01 00:27:43;;;;;;;4.87;4.47;;;16.50;91.50;;;16.46;42.44;99585.19;4814889;28;112204;-57
2022/04/01 00:30:10;;;;;;;4.70;4.30;;;16.60;91.20;;;16.58;42.37;99593.06;4808588;28;97362;-57
2022/04/01 00:32:38;;;;;;;4.70;4.30;;;16.70;90.90;;;16.65;42.21;99591.66;4825528;28;97518;-57
2022/04/01 00:35:05;;;;;;;4.40;4.10;;;16.80;90.70;;;16.73;41.65;99588.41;4820941;28;97237;-58
2022/04/01 00:37:31;;;;;;;4.20;3.90;;;16.90;90.40;;;16.80;41.61;99589.66;4824357;28;97394;-57
2022/04/01 00:39:58;;;;;;;4.10;3.80;;;17.00;90.60;;;16.81;41.68;99591.34;4823685;28;97738;-62
2022/04/01 00:42:25;;;;;;;4.10;3.80;;;16.90;90.00;;;16.81;41.55;99587.81;4823279;29;102373;-57
2022/04/01 00:44:52;;;;;;;3.83;3.53;;;16.90;90.20;;;16.82;41.41;99593.03;4822434;29;99105;-61
2022/04/01 00:47:19;;;;;;;3.70;3.40;;;16.90;90.10;;;16.85;41.27;99592.78;4819454;28;97266;-58
2022/04/01 00:49:47;;;;;;;3.30;3.10;;;16.90;90.00;;;16.89;41.31;99588.91;4808727;28;97651;-59
2022/04/01 00:52:20;;;;;;;3.47;3.17;;;17.00;89.90;;;16.93;41.12;99589.53;4815053;28;98380;-58
2022/04/01 00:54:46;;;;;;;3.13;2.93;;;17.10;89.60;;;16.93;41.31;99595.72;4822195;29;97693;-58
2022/04/01 00:57:14;;;;;;;3.20;3.00;;;17.00;89.30;;;16.91;41.24;99592.28;4820688;28;97320;-60
2022/04/01 00:59:42;;;;;;;3.03;2.73;;;17.00;89.70;;;16.92;41.21;99594.00;4827281;28;97441;-58
2022/04/01 01:02:08;;;;;;;2.97;2.77;;;17.00;89.40;;;16.95;40.96;99607.09;4819508;28;97736;-58
2022/04/01 01:04:36;;;;;;;3.40;3.20;;;17.10;88.10;;;16.81;40.67;99607.31;4823220;28;97446;-59
2022/04/01 01:07:04;;;;;;;2.60;2.40;;;16.80;86.30;;;16.84;41.22;99611.53;4820036;28;97459;-57
2022/04/01 01:09:30;;;;;;;2.70;2.50;;;16.90;88.90;;;16.82;41.39;99614.34;4805078;29;97126;-58
2022/04/01 01:11:56;;;;;;;2.80;2.60;;;16.80;89.80;;;16.74;41.36;99616.72;4824685;28;97640;-58
2022/04/01 01:14:33;;;;;;;3.70;3.47;;;16.70;88.80;;;16.64;41.45;99621.06;4822187;28;97094;-57
2022/04/01 01:17:00;;;;;;;2.63;2.43;;;16.50;88.50;;;16.59;41.81;99615.22;4811303;29;97725;-61
2022/04/01 01:19:27;;;;;;;2.70;2.50;;;16.40;90.60;;;16.67;41.73;99620.84;4819869;29;97380;-57
2022/04/01 01:21:57;;;;;;;2.20;2.00;;;16.60;90.40;;;16.69;41.57;99613.59;4814952;28;98226;-57
2022/04/01 01:24:38;;;;;;;3.20;3.00;;;16.60;90.20;;;16.67;41.43;99615.53;4816920;28;102266;-57
2022/04/01 01:27:06;;;;;;;2.57;2.10;;;16.60;88.80;;;16.63;41.62;99611.34;4814836;28;97176;-58
2022/04/01 01:29:35;;;;;;;2.53;2.33;;;16.50;90.30;;;16.61;41.75;99616.78;4826558;28;97053;-57
2022/04/01 01:32:06;;;;;;;2.03;1.90;;;16.60;90.00;;;16.62;41.53;99614.97;4817763;29;98220;-58
2022/04/01 01:34:32;;;;;;;2.10;2.00;;;16.60;90.20;;;16.65;41.71;99614.75;4819409;28;97375;-57
2022/04/01 01:37:00;;;;;;;2.60;2.40;;;16.60;90.10;;;16.60;41.61;99609.78;4805621;29;97023;-59
2022/04/01 01:39:47;;;;;;;2.00;1.90;;;16.50;89.30;;;16.63;41.48;99619.34;4804529;29;97249;-57
2022/04/01 01:42:12;;;;;;;3.40;3.20;;;16.60;90.10;;;16.68;41.30;99611.91;4809950;28;98567;-57
2022/04/01 01:44:38;;;;;;;2.30;2.10;;;16.70;88.00;;;16.76;41.29;99609.47;4825920;28;125934;-57
2022/04/01 01:47:05;;;;;;;2.40;2.20;;;16.80;89.00;;;16.77;40.89;99623.63;4818887;28;96944;-58
2022/04/01 01:49:31;;;;;;;2.23;2.00;;;16.80;86.90;;;16.68;41.26;99616.38;4822678;29;97244;-58
2022/04/01 01:54:52;;;;;;;1.67;1.57;;;16.60;89.80;;;16.65;41.24;99617.44;4822444;28;101594;-58
2022/04/01 01:57:22;;;;;;;2.40;2.23;;;16.60;87.80;;;16.53;40.03;99623.69;4823864;28;96970;-57
2022/04/01 01:59:50;;;;;;;1.73;1.63;;;16.40;86.20;;;16.54;41.37;99620.91;4829311;28;97189;-57
2022/04/01 02:02:19;;;;;;;2.30;2.10;;;16.40;90.10;;;16.61;41.57;99615.94;4812783;28;97582;-58
2022/04/01 02:04:49;;;;;;;2.17;2.03;;;16.60;89.90;;;16.65;41.19;99622.75;4827897;28;97405;-58
2022/04/01 02:07:16;;;;;;;1.90;1.80;;;16.60;89.30;;;16.71;41.27;99622.28;4824726;28;97237;-57
2022/04/01 02:09:43;;;;;;;1.87;1.77;;;16.70;88.80;;;16.75;41.34;99618.44;4828435;28;97197;-57
2022/04/01 02:12:10;;;;;;;1.97;1.87;;;16.80;88.70;;;16.77;40.93;99619.16;4820264;28;98199;-58
2022/04/01 02:14:36;;;;;;;2.07;1.80;;;16.90;87.80;;;16.78;40.95;99623.53;4842424;28;98133;-57
2022/04/01 02:17:04;;;;;;;1.67;1.57;;;16.90;88.30;;;16.75;41.01;99628.22;4832068;28;97158;-58
2022/04/01 02:19:31;;;;;;;1.60;1.50;;;16.80;88.10;;;16.71;40.83;99622.28;4829935;29;97441;-58
2022/04/01 02:21:57;;;;;;;1.93;1.83;;;16.70;88.60;;;16.72;41.14;99623.16;4830229;28;97662;-57
2022/04/01 02:24:25;;;;;;;1.87;1.77;;;16.70;88.40;;;16.66;41.11;99625.28;4822736;28;101364;-57
2022/04/01 02:26:51;;;;;;;1.93;1.83;;;16.70;87.30;;;16.65;41.12;99633.41;4830189;29;98883;-58
2022/04/01 02:29:20;;;;;;;1.70;1.60;;;16.60;88.90;;;16.64;41.25;99632.56;4824841;28;97261;-58
2022/04/01 02:31:48;;;;;;;2.03;1.83;;;16.60;88.70;;;16.62;41.19;99633.59;4828539;28;97904;-57
2022/04/01 02:34:14;;;;;;;1.50;1.40;;;16.60;88.90;;;16.63;41.15;99640.63;4817283;28;97187;-58
2022/04/01 02:36:40;;;;;;;1.80;1.70;;;16.60;88.70;;;16.56;41.36;99628.78;4827257;28;97518;-58
2022/04/01 02:39:15;;;;;;;1.90;1.80;;;16.60;89.00;;;16.59;41.45;99633.84;4802149;29;97302;-58
2022/04/01 02:41:40;;;;;;;1.57;1.47;;;16.60;88.00;;;16.62;41.25;99638.94;4825126;29;98214;-57
2022/04/01 02:44:26;;;;;;;1.60;1.50;;;16.70;88.50;;;16.62;41.38;99639.78;4822639;28;101593;-57
2022/04/01 02:46:53;;;;;;;1.90;1.80;;;16.60;88.80;;;16.67;41.42;99647.47;4822266;28;117758;-58
2022/04/01 02:49:38;;;;;;;1.60;1.50;;;16.70;88.50;;;16.63;41.06;99645.94;4820189;28;97217;-57
2022/04/01 02:52:05;;;;;;;1.40;1.30;;;16.60;88.50;;;16.63;41.27;99652.13;4820792;28;115411;-58
2022/04/01 02:54:34;;;;;;;2.83;2.63;;;16.60;88.80;;;16.54;40.99;99652.84;4826612;28;99324;-57
2022/04/01 02:57:20;;;;;;;2.77;2.57;;;16.50;85.00;;;16.42;41.64;99652.94;4818998;28;97270;-57
2022/04/01 03:00:09;;;;;;;1.60;1.50;;;16.30;87.20;;;16.30;41.74;99655.53;4824995;28;97395;-58
2022/04/01 03:02:54;;;;;;;1.93;1.57;;;16.00;89.40;;;16.40;41.59;99662.84;4827006;28;97279;-57
2022/04/01 03:05:21;;;;;;;2.27;2.07;;;16.20;90.10;;;16.50;41.60;99663.84;4822811;28;97365;-57
2022/04/01 03:08:07;;;;;;;1.70;1.60;;;16.40;89.60;;;16.60;41.31;99668.34;4822216;28;97368;-57
2022/04/01 03:10:36;;;;;;;3.10;1.93;;;16.60;88.80;;;16.65;41.18;99662.69;4825539;29;97509;-58
2022/04/01 03:13:03;;;;;;;2.17;1.50;;;16.70;85.80;;;16.59;41.29;99671.97;4823508;28;97769;-61
2022/04/01 03:15:30;;;;;;;1.67;1.57;;;16.60;88.70;;;16.65;41.05;99671.53;4827169;28;101326;-58
2022/04/01 03:17:58;;;;;;;3.90;3.30;;;16.60;88.40;;;16.57;40.82;99675.72;4840477;28;98553;-57
2022/04/01 03:20:25;;;;;;;1.70;1.60;;;16.50;85.80;;;16.63;40.87;99673.44;4822244;29;97546;-57
2022/04/01 03:22:52;;;;;;;1.40;1.30;;;16.60;88.20;;;16.70;40.70;99684.50;4825265;28;97641;-57
2022/04/01 03:25:20;;;;;;;2.10;1.53;;;16.80;87.20;;;16.64;41.03;99684.97;4822818;28;97363;-57
2022/04/01 03:27:48;;;;;;;2.27;2.07;;;16.70;87.70;;;16.69;40.63;99680.16;4826579;28;97066;-57
2022/04/01 03:30:15;;;;;;;2.50;2.23;;;16.80;85.60;;;16.70;40.48;99700.47;4823251;28;96891;-58
2022/04/01 03:32:43;;;;;;;4.60;3.67;;;16.80;86.50;;;16.75;38.62;99695.66;4820715;29;98352;-57
2022/04/01 03:35:14;;;;;;;1.73;1.63;;;16.80;82.20;;;16.73;40.78;99694.06;4822176;28;97758;-57
2022/04/01 03:37:45;;;;;;;2.07;1.63;;;16.70;87.30;;;16.76;40.22;99710.66;4824276;29;97385;-57
2022/04/01 03:40:15;;;;;;;2.03;1.90;;;16.80;87.10;;;16.68;40.42;99702.41;4825075;28;97484;-57
2022/04/01 03:42:47;;;;;;;3.00;1.57;;;16.70;86.50;;;16.73;40.15;99710.03;4824875;29;97975;-57
2022/04/01 03:45:14;;;;;;;1.93;1.50;;;16.70;86.70;;;16.70;40.31;99704.97;4821513;28;97708;-58
2022/04/01 03:48:14;;;;;;;1.93;1.60;;;16.80;86.70;;;16.68;40.31;99710.41;4826763;28;97509;-57
2022/04/01 03:50:45;;;;;;;1.93;1.73;;;16.70;86.70;;;16.67;40.39;99711.38;4820628;29;97133;-58
2022/04/01 03:53:11;;;;;;;3.03;2.73;;;16.80;86.30;;;16.73;40.11;99710.91;4819839;28;128571;-58
2022/04/01 03:55:39;;;;;;;2.27;1.80;;;16.90;84.10;;;16.76;40.10;99709.81;4825632;28;102885;-57
2022/04/01 03:58:13;;;;;;;2.67;2.47;;;16.90;85.70;;;16.68;39.94;99718.38;4794795;28;96968;-57
2022/04/01 04:00:42;;;;;;;2.47;1.87;;;16.80;84.40;;;16.70;40.54;99720.94;4825307;28;99412;-58
2022/04/01 04:03:19;;;;;;;2.63;1.60;;;16.80;86.20;;;16.72;40.13;99719.84;4820191;28;97555;-57
2022/04/01 04:05:48;;;;;;;1.63;1.53;;;16.90;85.70;;;16.67;37.01;99735.34;4821861;29;97573;-58
2022/04/01 04:08:22;;;;;;;2.00;1.80;;;16.90;80.80;;;16.71;39.88;99734.13;4808916;28;97702;-57
2022/04/01 04:10:51;;;;;;;2.40;2.20;;;16.90;85.70;;;16.79;39.35;99731.75;4820931;29;96960;-57
2022/04/01 04:13:20;;;;;;;1.83;1.70;;;16.90;81.40;;;16.75;40.48;99738.25;4824255;28;98049;-58
2022/04/01 04:16:08;;;;;;;2.10;1.33;;;16.80;85.90;;;16.80;40.05;99738.78;4825119;28;97555;-58
2022/04/01 04:19:04;;;;;;;2.43;1.73;;;16.90;85.40;;;16.79;39.67;99738.88;4820302;28;97071;-58
2022/04/01 04:22:19;;;;;;;2.10;1.87;;;16.90;85.20;;;16.81;39.46;99751.13;4820379;28;97167;-58
2022/04/01 04:25:00;;;;;;;3.37;2.37;;;16.90;83.20;;;16.78;39.38;99753.13;4801865;29;104011;-58
2022/04/01 04:27:29;;;;;;;1.50;1.40;;;16.80;83.50;;;16.69;39.93;99751.19;4812817;28;101337;-57
2022/04/01 04:30:09;;;;;;;1.87;1.60;;;16.80;85.10;;;16.70;40.06;99753.72;4826521;28;97285;-57
2022/04/01 04:32:48;;;;;;;2.43;1.80;;;16.80;85.20;;;16.76;40.10;99758.59;4817064;29;97170;-57
2022/04/01 04:35:25;;;;;;;2.37;1.77;;;16.90;84.70;;;16.80;40.04;99756.56;4819131;28;97582;-57
2022/04/01 04:37:56;;;;;;;2.33;1.70;;;17.00;85.00;;;16.80;38.60;99760.06;4823751;28;106981;-57
2022/04/01 04:40:23;;;;;;;1.57;1.47;;;17.00;82.70;;;16.76;39.78;99761.25;4822793;28;97392;-57
2022/04/01 04:42:49;;;;;;;1.90;1.70;;;17.00;84.30;;;16.86;39.33;99767.59;4826360;28;96952;-57
2022/04/01 04:45:21;;;;;;;2.43;1.53;;;17.00;83.60;;;16.78;39.49;99770.00;4808632;29;98019;-57
2022/04/01 04:47:50;;;;;;;2.23;1.50;;;16.90;84.40;;;16.78;39.79;99770.00;4821615;29;97614;-57
2022/04/01 04:50:16;;;;;;;2.30;2.00;;;16.90;84.30;;;16.64;39.81;99772.81;4823069;28;97454;-57
2022/04/01 04:52:48;;;;;;;1.73;1.40;;;16.80;84.80;;;16.79;39.57;99773.50;4825208;29;97096;-57
2022/04/01 04:58:04;;;;;;;2.87;1.57;;;16.90;83.90;;;16.73;39.40;99785.44;4815181;29;97386;-57
2022/04/01 05:00:30;;;;;;;1.47;1.37;;;16.90;84.30;;;16.80;39.32;99786.72;4833975;28;96990;-57
2022/04/01 05:03:36;;;;;;;2.13;1.90;;;16.90;84.20;;;16.80;39.49;99792.03;4823385;29;117381;-57
2022/04/01 05:06:03;;;;;;;4.33;3.00;;;16.90;83.90;;;16.68;34.61;99792.09;4811072;28;101796;-57
2022/04/01 05:09:00;;;;;;;1.73;1.63;;;16.90;76.10;;;16.64;39.62;99799.44;4829937;29;103699;-57
2022/04/01 05:11:47;;;;;;;1.57;1.47;;;16.70;84.60;;;16.66;39.58;99794.84;4822517;28;97093;-58
2022/04/01 05:15:10;;;;;;;1.77;1.60;;;16.80;84.10;;;16.72;39.31;99810.38;4822901;28;97604;-57
2022/04/01 05:17:40;;;;;;;2.20;1.90;;;16.90;83.80;;;16.72;39.43;99806.88;4811860;28;102285;-57
2022/04/01 05:20:15;;;;;;;3.03;2.73;;;17.00;83.50;;;16.77;38.99;99810.88;4823259;28;99748;-58
2022/04/01 05:23:15;;;;;;;1.57;1.37;;;16.90;81.20;;;16.82;39.19;99822.06;4821502;28;97765;-57
2022/04/01 05:26:08;;;;;;;2.13;1.93;;;17.00;83.20;;;16.80;38.92;99821.31;4822964;28;97883;-57
2022/04/01 05:28:45;;;;;;;1.33;1.23;;;17.00;80.40;;;16.80;39.05;99829.31;4819961;29;101650;-57
2022/04/01 05:31:34;;;;;;;2.33;1.70;;;17.00;83.00;;;16.88;38.67;99829.56;4827559;28;97445;-57
2022/04/01 05:34:39;;;;;;;1.43;1.33;;;17.00;79.70;;;16.82;39.30;99832.72;4825968;28;96970;-61
2022/04/01 05:37:06;;;;;;;2.60;1.70;;;17.00;82.80;;;16.86;38.62;99844.81;4812476;29;97562;-57
2022/04/01 05:42:04;;;;;;;1.30;1.20;;;17.00;82.30;;;16.79;39.00;99848.91;4834499;28;97108;-59
2022/04/01 05:44:32;;;;;;;1.60;1.20;;;16.80;82.90;;;16.82;38.86;99848.69;4844411;28;97311;-58
2022/04/01 05:46:58;;;;;;;1.50;1.40;;;16.90;82.70;;;16.77;38.98;99861.47;4848182;28;116734;-58
2022/04/01 05:49:25;;;;;;;1.33;1.23;;;16.90;81.90;;;16.77;39.24;99852.63;4840868;28;122391;-58
2022/04/01 05:51:53;;;;;;;1.90;1.67;;;17.00;82.80;;;16.84;38.64;99852.09;4822631;29;97039;-58
2022/04/01 06:44:52;;;;;;;1.30;1.20;;;17.00;81.70;;;16.83;38.70;99937.44;5207703;23;99199;-59
2022/04/01 06:47:20;;;;;;;2.37;2.10;;;17.00;81.60;;;16.85;38.06;99944.34;4771642;28;97688;-59
2022/04/01 07:00:12;;;;;;;2.17;1.30;;;16.90;77.60;;;16.73;38.32;99961.19;5144121;23;99324;-60
2022/04/01 07:02:41;;;;;;;1.30;1.20;;;16.80;81.20;;;16.78;38.03;99966.19;4841716;28;97097;-59
2022/04/01 07:05:09;;;;;;;1.10;1.00;;;16.90;81.00;;;16.84;37.83;99958.63;4807505;28;99304;-60
2022/04/01 07:07:36;;;;;;;2.37;1.63;;;17.00;80.30;;;16.85;37.86;99962.97;4833652;28;97249;-60
2022/04/01 07:54:06;;;;;;;1.57;1.47;;;16.60;81.50;;;16.60;37.99;100021.56;5508716;23;98428;-58
2022/04/01 07:56:32;;;;;;;1.20;1.10;;;16.60;78.20;;;16.56;38.45;100028.09;4819972;28;121257;-58
2022/04/01 07:58:58;;;;;;;1.73;1.40;;;16.50;80.20;;;16.50;38.31;100023.19;4827074;28;128065;-59
2022/04/01 08:01:25;;;;;;;2.70;2.50;;;16.50;82.00;;;16.46;37.53;100032.34;4809517;29;97393;-58
2022/04/01 08:03:51;;;;;;;1.33;1.23;;;16.40;76.90;;;16.23;39.10;100032.13;4828392;28;97319;-58
2022/04/01 08:06:17;;;;;;;1.20;1.10;;;15.90;83.70;;;16.30;39.07;100036.06;4815489;28;107749;-58
2022/04/01 08:08:43;;;;;;;3.90;3.03;;;16.20;83.40;;;16.21;36.52;100039.38;4826451;29;97379;-58
2022/04/01 08:11:08;;;;;;;4.10;2.60;;;16.20;73.70;;;16.10;38.69;100044.56;4817945;28;118238;-58
2022/04/01 08:13:34;;;;;;;3.40;2.47;;;15.90;79.70;;;15.95;39.03;100037.63;4825377;29;117848;-58
2022/04/01 08:16:01;;;;;;;1.20;1.10;;;15.60;82.70;;;15.99;39.56;100039.13;4810070;29;98041;-61
2022/04/01 08:18:28;;;;;;;3.40;2.37;;;15.70;84.70;;;16.05;36.34;100041.34;4824075;28;97827;-58
2022/04/01 08:20:56;;;;;;;1.40;1.30;;;16.00;77.40;;;16.18;39.43;100039.56;4807236;29;97353;-58
2022/04/01 08:23:22;;;;;;;1.67;1.30;;;16.20;82.20;;;16.30;39.52;100046.72;4814947;28;97619;-58
2022/04/01 08:25:49;;;;;;;1.70;1.30;;;16.40;82.60;;;16.26;38.56;100052.34;4842170;28;97699;-58
2022/04/01 08:28:15;;;;;;;1.07;1.00;;;16.30;78.70;;;16.31;38.81;100043.09;4821760;28;97218;-58
2022/04/01 08:30:44;;;;;;;3.57;2.03;;;16.30;82.30;;;16.38;38.71;100053.31;4826995;28;97408;-58
2022/04/01 08:33:13;;;;;;;2.43;1.80;;;16.50;80.30;;;16.40;38.52;100056.72;4797360;28;98873;-58
2022/04/01 08:35:40;;;;;;;1.70;1.23;;;16.50;79.10;;;16.40;39.12;100064.72;4828268;28;99221;-58
2022/04/01 08:38:05;;;;;;;1.27;1.17;;;16.50;82.50;;;16.39;38.72;100065.69;4818888;28;97452;-58
2022/04/01 08:40:32;;;;;;;1.20;1.10;;;16.50;81.40;;;16.44;38.26;100068.88;4813542;28;97870;-58
2022/04/01 08:43:22;;;;;;;2.80;2.17;;;16.50;81.10;;;16.46;38.38;100072.25;4833556;28;97396;-58
2022/04/01 08:46:01;;;;;;;1.20;1.10;;;16.40;80.70;;;16.38;38.12;100093.25;4817695;28;101844;-58
2022/04/01 08:48:30;;;;;;;1.43;1.20;;;16.40;78.80;;;16.38;38.66;100090.59;4822694;28;97529;-58
2022/04/01 09:34:59;;;;;;;1.03;1.03;;;16.40;80.90;;;16.47;38.43;100153.81;5393641;23;98379;-59
2022/04/01 09:37:44;;;;;;;2.13;1.90;;;16.50;81.20;;;16.36;32.54;100160.75;4814565;28;101652;-59
2022/04/01 09:40:13;;;;;;;2.10;1.90;;;16.70;76.40;;;16.19;38.36;100158.34;4811883;28;99300;-59
2022/04/01 09:42:48;;;;;;;1.47;1.37;;;16.30;78.30;;;16.34;38.34;100156.47;4816646;28;97188;-59
2022/04/01 09:45:21;;;;;;;1.37;1.20;;;16.40;81.80;;;16.42;38.51;100155.97;4814212;28;102639;-59
2022/04/01 09:48:00;;;;;;;1.30;1.20;;;16.50;81.20;;;16.49;38.39;100159.91;4810189;28;97634;-59
2022/04/01 09:50:41;;;;;;;2.03;1.50;;;16.60;80.60;;;16.58;38.54;100164.59;4817831;28;102973;-59
2022/04/01 09:53:08;;;;;;;2.90;2.23;;;16.70;81.40;;;16.26;35.63;100167.63;4810337;28;97220;-60
2022/04/01 09:55:39;;;;;;;1.63;1.23;;;16.40;70.70;;;16.40;38.20;100171.19;4816328;28;97693;-59
2022/04/01 09:58:06;;;;;;;1.67;1.27;;;16.40;81.40;;;16.40;38.63;100168.53;4809127;28;98530;-59
2022/04/01 10:00:34;;;;;;;1.60;1.50;;;16.60;81.30;;;16.40;38.93;100165.84;4811558;29;98301;-60
2022/04/01 10:03:00;;;;;;;2.83;2.63;;;16.60;80.50;;;16.47;35.48;100175.13;4819152;28;97416;-63
2022/04/01 10:05:26;;;;;;;1.47;1.20;;;16.70;73.50;;;16.58;37.77;100167.25;4816227;28;97701;-59
2022/04/01 10:07:55;;;;;;;1.87;1.50;;;16.70;79.50;;;16.59;37.47;100172.47;4824117;28;98219;-60
2022/04/01 10:10:21;;;;;;;1.63;1.53;;;16.70;75.50;;;16.57;38.28;100168.22;4810423;29;97937;-59
2022/04/01 10:12:49;;;;;;;1.87;1.50;;;16.70;80.20;;;16.64;37.70;100177.53;4823768;28;97917;-59
2022/04/01 10:15:16;;;;;;;7.70;1.30;;;16.80;79.80;;;16.60;38.07;100178.66;4814166;28;101002;-59
2022/04/01 10:17:43;;;;;;;1.17;1.07;;;16.80;79.90;;;16.61;38.19;100191.00;4813352;29;97570;-59
2022/04/01 10:20:12;;;;;;;1.87;1.40;;;16.80;79.70;;;16.49;33.18;100181.19;4809345;28;97351;-59
2022/04/01 10:22:41;;;;;;;1.37;1.27;;;16.80;76.00;;;16.61;37.28;100188.34;4808177;28;97434;-59
2022/04/01 10:25:16;;;;;;;1.30;1.20;;;16.80;77.40;;;16.68;38.12;100189.69;4821872;28;96944;-59
2022/04/01 10:27:52;;;;;;;2.03;1.20;;;16.90;79.90;;;16.75;37.61;100177.66;4819765;28;99401;-59
2022/04/01 10:30:20;;;;;;;1.27;1.17;;;17.00;79.40;;;16.74;37.50;100180.41;4820378;28;97905;-59
2022/04/01 10:32:48;;;;;;;1.40;1.20;;;16.90;78.20;;;16.71;37.79;100184.16;4817789;28;97666;-59
2022/04/01 10:35:29;;;;;;;2.03;1.40;;;16.90;79.00;;;16.74;36.98;100191.91;4822018;28;97356;-60
2022/04/01 10:38:19;;;;;;;1.70;1.60;;;16.70;77.90;;;16.55;37.43;100199.44;4822644;28;97734;-59
2022/04/01 10:40:49;;;;;;;1.27;1.17;;;16.60;77.80;;;16.54;37.36;100190.59;4814244;28;101832;-59
2022/04/01 10:43:26;;;;;;;1.83;1.20;;;16.50;78.90;;;16.52;37.08;100197.84;4807966;28;98071;-58
2022/04/01 10:46:13;;;;;;;1.47;1.37;;;16.50;78.50;;;16.61;37.16;100212.31;4809762;28;99355;-59
2022/04/01 10:52:12;;;;;;;3.13;1.33;;;16.50;71.90;;;16.51;38.02;100206.78;4812240;28;101011;-59
2022/04/01 10:54:44;;;;;;;1.30;1.20;;;16.50;79.20;;;16.49;37.92;100206.03;4808297;28;97742;-59
2022/04/01 10:57:36;;;;;;;2.50;1.90;;;16.50;79.80;;;16.35;30.76;100206.09;4815540;28;97358;-59
2022/04/01 11:00:13;;;;;;;1.40;1.30;;;16.60;67.80;;;16.43;38.28;100208.22;4823805;28;106084;-60
2022/04/01 11:02:39;;;;;;;1.33;1.23;;;16.40;80.20;;;16.43;37.83;100208.22;4818200;28;97933;-59
2022/04/01 11:05:31;;;;;;;3.27;2.00;;;16.50;78.00;;;16.21;37.07;100216.81;4809179;28;102064;-60
2022/04/01 11:08:19;;;;;;;1.83;1.57;;;16.20;74.50;;;16.21;38.03;100212.34;4817229;28;97522;-59
2022/04/01 11:11:12;;;;;;;2.77;2.57;;;16.20;80.10;;;16.18;33.95;100220.50;4810173;28;102870;-60
2022/04/01 11:13:39;;;;;;;3.50;2.60;;;16.10;70.40;;;15.87;36.42;100215.47;4821518;28;102200;-59
2022/04/01 11:16:22;;;;;;;2.10;1.87;;;15.70;72.80;;;15.92;35.25;100216.03;4820187;28;97915;-59
2022/04/01 11:19:17;;;;;;;3.07;2.77;;;15.70;76.50;;;15.80;38.23;100222.16;4835262;28;97555;-59
2022/04/01 11:21:46;;;;;;;1.20;1.10;;;15.60;77.40;;;15.94;38.41;100216.78;4814844;28;101743;-58
2022/04/01 11:24:31;;;;;;;2.83;1.87;;;15.80;81.80;;;16.10;37.80;100217.50;4781319;28;101631;-60
2022/04/01 11:27:06;;;;;;;1.20;1.10;;;16.10;77.50;;;16.06;37.84;100226.66;4779484;28;98176;-59
2022/04/01 11:29:32;;;;;;;2.33;1.50;;;15.90;80.20;;;16.10;34.68;100233.47;4781288;29;99878;-59
2022/04/01 11:32:08;;;;;;;2.93;1.37;;;16.20;75.70;;;16.10;38.35;100230.81;4777715;28;99872;-59
2022/04/01 11:34:54;;;;;;;1.67;1.30;;;16.10;80.00;;;16.19;37.74;100232.84;4773594;28;101535;-60
2022/04/01 11:37:20;;;;;;;1.63;1.00;;;16.30;77.00;;;16.14;38.23;100229.63;4777374;28;100016;-59
2022/04/01 11:39:46;;;;;;;2.37;1.30;;;16.30;79.30;;;16.30;38.10;100229.47;4776552;29;100991;-58
2022/04/01 11:42:12;;;;;;;1.70;1.20;;;16.40;78.90;;;16.41;37.81;100234.09;4773984;28;128076;-58
2022/04/01 11:44:38;;;;;;;2.30;1.47;;;16.50;78.90;;;16.27;33.86;100232.34;4778335;28;126455;-58
2022/04/01 11:47:04;;;;;;;2.50;1.37;;;16.40;74.60;;;16.27;37.48;100227.88;4771886;28;106573;-58
2022/04/01 11:49:29;;;;;;;1.30;1.20;;;16.30;77.70;;;16.29;37.17;100244.59;4780245;29;98798;-58
2022/04/01 11:51:57;;;;;;;2.37;2.17;;;16.30;76.20;;;16.11;32.78;100240.50;4778060;28;98640;-58
2022/04/01 11:54:22;;;;;;;1.83;1.47;;;16.10;72.10;;;16.26;37.25;100239.47;4772814;28;100608;-58
2022/04/01 11:56:53;;;;;;;1.07;0.97;;;16.20;78.40;;;16.31;37.65;100248.00;4777922;28;98565;-58
2022/04/01 11:59:19;;;;;;;2.97;2.10;;;16.40;79.30;;;16.16;32.16;100249.00;4772376;28;102781;-58
2022/04/01 12:02:01;;;;;;;1.23;1.10;;;16.30;71.50;;;16.17;37.81;100249.88;4773787;29;99626;-58
2022/04/01 12:04:35;;;;;;;2.07;1.10;;;16.20;79.50;;;16.25;37.49;100237.78;4786489;28;104670;-58
2022/04/01 12:09:58;;;;;;;1.93;1.67;;;16.50;75.80;;;16.25;37.38;100243.09;4780729;28;99896;-58
2022/04/01 12:12:25;;;;;;;1.20;1.10;;;16.50;76.60;;;16.40;37.50;100248.38;4774011;28;107398;-58
2022/04/01 12:14:56;;;;;;;1.27;1.13;;;16.60;78.20;;;16.50;37.05;100249.47;4794593;28;100171;-58
2022/04/01 12:17:22;;;;;;;2.33;1.33;;;16.70;77.50;;;16.59;36.48;100259.50;4776361;28;100601;-58
2022/04/01 12:19:48;;;;;;;2.07;1.87;;;16.80;77.20;;;16.66;36.50;100258.16;4779587;28;97761;-58
2022/04/01 12:22:14;;;;;;;4.40;1.90;;;16.80;76.80;;;16.67;36.39;100259.88;4775045;28;99920;-58
2022/04/01 12:24:40;;;;;;;1.50;1.37;;;16.80;75.00;;;16.65;37.27;100256.44;4789496;28;101160;-58
2022/04/01 12:27:09;;;;;;;1.30;1.20;;;16.80;78.00;;;16.66;36.87;100264.31;4774798;28;98814;-58
2022/04/01 12:29:35;;;;;;;1.53;1.00;;;16.90;77.10;;;16.72;36.77;100263.06;4783758;28;99842;-59
2022/04/01 12:32:07;;;;;;;1.30;1.13;;;17.00;76.90;;;16.76;36.36;100259.25;4768454;28;100658;-63
2022/04/01 12:34:33;;;;;;;2.03;1.20;;;16.90;76.10;;;16.75;36.60;100268.19;4790484;28;100541;-59
2022/04/01 12:37:05;;;;;;;1.77;1.43;;;16.90;76.80;;;16.80;35.87;100258.09;4778073;28;99699;-59
2022/04/01 12:39:35;;;;;;;1.40;1.30;;;16.90;75.50;;;16.84;35.77;100267.59;4774905;28;100604;-59
2022/04/01 12:42:12;;;;;;;2.27;2.07;;;16.90;75.30;;;16.47;33.16;100268.28;4785093;28;101743;-59
2022/04/01 12:44:39;;;;;;;3.20;1.43;;;16.50;73.60;;;16.39;37.12;100270.63;4776645;28;101307;-59
2022/04/01 12:47:06;;;;;;;1.77;1.40;;;16.30;78.60;;;16.34;37.67;100278.88;4785727;28;100074;-59
2022/04/01 12:49:34;;;;;;;2.67;2.00;;;16.40;78.80;;;16.44;36.78;100273.81;4776026;28;99182;-59
2022/04/01 12:52:15;;;;;;;1.53;1.20;;;16.50;77.00;;;16.50;37.25;100278.75;4772079;28;99932;-60
2022/04/01 12:54:50;;;;;;;1.50;1.40;;;16.60;78.00;;;16.58;36.89;100277.28;4773188;28;101737;-59
2022/04/01 12:57:19;;;;;;;1.47;1.30;;;16.70;76.80;;;16.66;36.98;100279.44;4772175;28;101276;-59
2022/04/01 12:59:46;;;;;;;1.90;1.37;;;16.80;77.80;;;16.54;36.85;100280.25;4775713;28;101894;-59
2022/04/01 13:02:16;;;;;;;3.07;2.13;;;16.60;77.30;;;16.59;36.12;100272.81;4772615;28;103130;-59
2022/04/01 13:04:49;;;;;;;1.90;1.80;;;16.70;73.00;;;16.63;37.10;100290.28;4775287;28;102190;-59
2022/04/01 13:07:20;;;;;;;1.30;1.20;;;16.80;77.50;;;16.66;37.23;100287.44;4770755;28;100347;-59
2022/04/01 13:09:58;;;;;;;1.30;1.20;;;16.80;76.80;;;16.65;36.54;100288.41;4774898;28;101254;-59
2022/04/01 13:12:39;;;;;;;1.67;1.40;;;16.80;77.60;;;16.62;37.05;100288.56;4770839;28;100293;-59
2022/04/01 13:15:06;;;;;;;2.10;1.90;;;16.70;77.60;;;16.57;36.25;100285.38;4769000;28;100551;-59
2022/04/01 13:17:56;;;;;;;3.97;2.57;;;16.80;74.90;;;16.40;32.88;100293.63;4789466;28;97582;-59